Time;durP1;ratioP1;P1;durP2;ratioP2;P2;SDS_P1;SDS_P2;PMS_P1;PMS_P2;Temp;Humidity;BMP_temperature;BMP_pressure;BME280_temperature;BME280_humidity;BME280_pressure;Samples;Min_cycle;Max_cycle;Signal;HPM_P1;HPM_P2
2022/03/14 06:13:27;;;;;;;11.33;7.30;;;;;;;5.51;100.00;96929.53;5043207;28;20354;-86
2022/03/14 06:15:53;;;;;;;12.83;8.13;;;;;;;5.56;100.00;96937.84;5051545;28;20523;-86
2022/03/14 06:18:46;;;;;;;12.80;7.83;;;;;;;5.47;100.00;96941.13;5026835;28;20541;-87
2022/03/14 06:21:11;;;;;;;13.10;8.47;;;;;;;5.46;100.00;96950.72;5051256;28;20683;-86
2022/03/14 06:23:37;;;;;;;10.60;7.50;;;;;;;5.52;100.00;96962.50;5059965;28;20035;-86
2022/03/14 06:26:03;;;;;;;12.70;8.97;;;;;;;5.48;100.00;96971.50;5036063;28;20037;-86
2022/03/14 06:28:29;;;;;;;13.97;9.30;;;;;;;5.52;100.00;96965.09;5047512;28;20071;-86
2022/03/14 06:30:55;;;;;;;17.33;11.20;;;;;;;5.46;100.00;96982.00;5026625;28;20118;-86
2022/03/14 06:33:21;;;;;;;18.73;12.97;;;;;;;5.47;100.00;96983.69;5050425;28;20086;-86
2022/03/14 06:35:47;;;;;;;16.90;11.93;;;;;;;5.44;100.00;96987.34;5056843;28;20040;-86
2022/03/14 06:38:12;;;;;;;20.60;12.83;;;;;;;5.40;100.00;96991.13;5037186;28;20033;-86
2022/03/14 06:40:41;;;;;;;17.80;12.53;;;;;;;5.36;100.00;96996.66;5056842;28;20425;-86
2022/03/14 06:43:07;;;;;;;18.53;11.43;;;;;;;5.35;100.00;97000.22;5035335;28;20038;-86
2022/03/14 06:45:34;;;;;;;17.47;12.17;;;;;;;5.38;100.00;97007.81;5040363;28;20058;-85
2022/03/14 06:48:01;;;;;;;18.50;12.47;;;;;;;5.31;100.00;97010.03;5035181;28;20037;-85
2022/03/14 06:50:31;;;;;;;23.30;17.63;;;;;;;5.31;100.00;97001.38;5066438;28;20127;-85
2022/03/14 06:52:58;;;;;;;17.60;11.97;;;;;;;5.34;100.00;97015.03;5042193;28;20036;-86
2022/03/14 06:55:27;;;;;;;19.03;11.77;;;;;;;5.31;100.00;97012.63;5038944;28;20044;-85
2022/03/14 06:57:54;;;;;;;17.73;11.20;;;;;;;5.35;100.00;97008.03;5034113;28;20546;-86
2022/03/14 07:00:20;;;;;;;16.70;11.20;;;;;;;5.32;100.00;97014.28;5032108;28;20063;-86
2022/03/14 07:02:46;;;;;;;16.80;10.50;;;;;;;5.38;100.00;97019.09;5035424;28;20020;-86
2022/03/14 07:05:35;;;;;;;18.93;12.23;;;;;;;5.39;100.00;97022.53;5030203;28;20037;-86
2022/03/14 07:08:01;;;;;;;15.80;11.13;;;;;;;5.36;100.00;97036.59;5042776;28;20703;-86
2022/03/14 07:10:30;;;;;;;18.20;11.20;;;;;;;5.48;100.00;97029.72;5033320;28;20025;-87
2022/03/14 07:12:57;;;;;;;16.20;10.27;;;;;;;5.50;100.00;97033.06;5032065;28;20518;-87
2022/03/14 07:15:25;;;;;;;15.23;10.73;;;;;;;5.62;100.00;97047.81;5029338;28;20470;-87
2022/03/14 07:17:51;;;;;;;16.97;11.10;;;;;;;5.73;100.00;97049.66;5029687;28;20124;-86
2022/03/14 07:20:19;;;;;;;16.50;11.00;;;;;;;5.84;100.00;97054.16;5036694;28;20048;-87
2022/03/14 07:22:55;;;;;;;15.37;9.93;;;;;;;5.88;100.00;97052.97;5046669;28;20062;-86
2022/03/14 07:25:27;;;;;;;18.73;11.67;;;;;;;5.94;100.00;97067.41;5063865;28;20032;-86
2022/03/14 07:27:56;;;;;;;17.90;11.48;;;;;;;5.93;100.00;97063.09;5054646;28;20032;-86
2022/03/14 07:30:41;;;;;;;18.67;11.77;;;;;;;5.86;100.00;97071.34;5036792;28;20049;-86
2022/03/14 07:33:07;;;;;;;20.43;12.80;;;;;;;5.83;100.00;97071.56;5041962;28;20041;-86
2022/03/14 07:35:35;;;;;;;15.93;11.13;;;;;;;5.93;100.00;97073.56;5023699;28;20047;-86
2022/03/14 07:38:05;;;;;;;14.00;9.70;;;;;;;6.14;100.00;97079.84;5040958;28;20035;-87
2022/03/14 07:40:36;;;;;;;14.17;9.03;;;;;;;6.38;100.00;97077.22;5040993;28;20089;-86
2022/03/14 07:43:25;;;;;;;11.90;7.97;;;;;;;6.28;100.00;97076.25;5039846;28;20044;-87
2022/03/14 07:45:51;;;;;;;11.23;7.43;;;;;;;7.29;100.00;97069.47;5042059;28;20090;-86
2022/03/14 07:48:17;;;;;;;10.80;7.43;;;;;;;8.17;100.00;97071.25;5025293;28;20032;-87
2022/03/14 07:50:43;;;;;;;12.43;7.00;;;;;;;8.79;100.00;97071.53;5040393;28;20486;-87
2022/03/14 07:53:09;;;;;;;10.60;6.43;;;;;;;9.29;100.00;97069.91;5055655;28;20025;-87
2022/03/14 07:55:47;;;;;;;9.13;5.17;;;;;;;9.57;100.00;97076.22;5042953;28;20269;-87
2022/03/14 07:58:13;;;;;;;7.53;4.90;;;;;;;9.53;100.00;97087.16;5038555;28;20040;-87
2022/03/14 08:00:39;;;;;;;6.87;3.30;;;;;;;9.52;100.00;97086.28;5035963;28;20092;-88
2022/03/14 08:03:05;;;;;;;7.10;3.83;;;;;;;10.61;100.00;97085.47;5037788;28;20035;-88
2022/03/14 08:05:31;;;;;;;6.47;3.00;;;;;;;10.67;100.00;97078.81;5038387;28;20068;-89
2022/03/14 08:07:59;;;;;;;6.77;3.33;;;;;;;10.92;100.00;97082.66;5044095;28;20025;-88
2022/03/14 08:10:26;;;;;;;6.97;2.37;;;;;;;10.75;100.00;97086.00;5038775;28;20040;-88
2022/03/14 08:12:55;;;;;;;4.93;1.63;;;;;;;10.55;100.00;97083.38;5035960;28;20116;-88
2022/03/14 08:15:38;;;;;;;5.93;1.83;;;;;;;11.30;99.88;97089.69;5033822;28;20128;-89
2022/03/14 08:18:27;;;;;;;7.30;1.90;;;;;;;11.08;100.00;97113.69;5063899;28;20033;-90
2022/03/14 08:20:57;;;;;;;6.57;2.37;;;;;;;10.57;97.67;97117.44;5039717;28;20028;-89
2022/03/14 08:23:25;;;;;;;4.70;1.93;;;;;;;11.15;93.69;97129.75;5050805;28;20504;-89
2022/03/14 08:25:53;;;;;;;6.87;2.23;;;;;;;10.26;92.41;97127.22;5023582;28;20040;-89
2022/03/14 08:28:20;;;;;;;6.00;2.60;;;;;;;10.57;92.18;97135.84;5033052;28;20035;-89
2022/03/14 08:30:49;;;;;;;6.33;1.70;;;;;;;11.24;92.05;97148.16;5031503;28;20041;-88
2022/03/14 08:33:17;;;;;;;4.97;1.60;;;;;;;11.33;86.96;97144.69;5039245;28;20039;-89
2022/03/14 08:35:46;;;;;;;4.17;1.50;;;;;;;11.51;86.63;97141.31;5046469;28;20040;-88
2022/03/14 08:38:17;;;;;;;7.03;1.80;;;;;;;10.43;89.16;97150.25;5072004;28;20038;-88
2022/03/14 08:40:43;;;;;;;4.70;1.40;;;;;;;9.46;94.21;97155.09;5022353;28;20483;-87
2022/03/14 08:43:09;;;;;;;7.57;2.90;;;;;;;8.80;99.62;97163.19;5056618;28;20037;-88
2022/03/14 08:45:35;;;;;;;5.73;1.23;;;;;;;8.63;100.00;97156.69;5046161;28;20029;-88
2022/03/14 08:48:01;;;;;;;7.63;1.83;;;;;;;8.12;100.00;97173.00;5046860;28;20546;-87
2022/03/14 08:50:33;;;;;;;7.03;2.10;;;;;;;8.07;100.00;97174.28;5034105;28;20036;-88
2022/03/14 08:52:59;;;;;;;2.30;1.00;;;;;;;7.87;100.00;97188.94;5027820;28;20044;-88
2022/03/14 08:55:25;;;;;;;4.00;1.37;;;;;;;7.94;100.00;97187.50;5061808;28;20036;-87
2022/03/14 08:57:50;;;;;;;6.90;1.53;;;;;;;7.90;100.00;97183.47;5022805;28;20036;-88
2022/03/14 09:00:17;;;;;;;7.20;2.90;;;;;;;7.86;100.00;97192.53;5034810;28;20039;-88
2022/03/14 09:03:13;;;;;;;7.67;4.13;;;;;;;7.79;100.00;97193.00;5037208;28;20033;-88
2022/03/14 09:05:39;;;;;;;4.60;1.77;;;;;;;7.73;100.00;97201.31;5040071;28;20472;-88
2022/03/14 09:08:05;;;;;;;5.60;2.00;;;;;;;7.65;100.00;97202.88;5028888;28;20029;-90
2022/03/14 09:10:36;;;;;;;3.73;1.60;;;;;;;7.56;100.00;97201.78;5049028;28;20044;-88
2022/03/14 09:13:04;;;;;;;3.53;1.53;;;;;;;7.56;100.00;97207.00;5035000;28;20101;-88
2022/03/14 09:15:30;;;;;;;6.37;1.83;;;;;;;7.42;100.00;97208.06;5037065;28;20114;-88
2022/03/14 09:18:03;;;;;;;4.27;1.30;;;;;;;7.64;100.00;97203.81;5049723;28;20123;-88
2022/03/14 09:20:30;;;;;;;2.63;0.88;;;;;;;7.70;100.00;97198.09;5053879;28;20096;-89
2022/03/14 09:22:56;;;;;;;5.50;1.40;;;;;;;7.59;100.00;97209.41;5053835;28;20174;-88
2022/03/14 09:25:23;;;;;;;5.33;1.70;;;;;;;7.60;100.00;97202.38;5045159;28;20562;-89
2022/03/14 09:27:50;;;;;;;6.10;1.77;;;;;;;7.81;100.00;97203.34;5053819;28;20070;-88
2022/03/14 09:30:27;;;;;;;2.83;1.00;;;;;;;8.03;100.00;97205.13;5054287;28;20042;-88
2022/03/14 09:32:54;;;;;;;3.00;1.10;;;;;;;8.16;100.00;97211.09;5033473;28;20041;-88
2022/03/14 09:35:23;;;;;;;3.57;1.47;;;;;;;8.37;100.00;97210.34;5034073;28;20020;-89
2022/03/14 09:37:49;;;;;;;3.37;1.00;;;;;;;9.34;95.58;97213.88;5032973;28;20028;-89
2022/03/14 09:40:19;;;;;;;3.33;0.83;;;;;;;9.36;96.59;97210.16;5052117;28;20108;-88
2022/03/14 09:42:51;;;;;;;13.80;3.20;;;;;;;9.14;95.73;97216.34;5029907;28;20510;-89
2022/03/14 09:45:21;;;;;;;2.73;0.90;;;;;;;8.86;96.83;97222.19;5033195;28;20127;-89
2022/03/14 09:48:00;;;;;;;5.23;1.30;;;;;;;8.57;95.93;97225.34;5051707;28;20047;-89
2022/03/14 09:50:36;;;;;;;3.75;0.80;;;;;;;8.35;97.58;97225.34;5053605;28;20197;-89
2022/03/14 09:53:07;;;;;;;3.87;1.13;;;;;;;8.38;98.86;97225.16;5034582;28;20119;-89
2022/03/14 09:55:38;;;;;;;3.70;1.27;;;;;;;8.38;98.91;97238.25;5033828;28;20087;-89
2022/03/14 09:58:14;;;;;;;6.57;1.80;;;;;;;8.42;100.00;97245.78;5052300;28;20036;-89
2022/03/14 10:00:42;;;;;;;4.57;1.57;;;;;;;8.40;100.00;97249.47;5044775;28;20064;-89
2022/03/14 10:03:09;;;;;;;5.63;1.80;;;;;;;8.53;98.95;97244.09;5031933;28;20036;-89
2022/03/14 10:05:38;;;;;;;4.27;1.17;;;;;;;8.47;97.78;97253.25;5046210;28;20052;-88
2022/03/14 10:08:04;;;;;;;4.83;1.73;;;;;;;8.43;95.48;97260.53;5037227;28;20044;-89
2022/03/14 10:10:30;;;;;;;8.97;3.43;;;;;;;8.37;95.51;97253.13;5034908;28;20394;-89
2022/03/14 10:12:59;;;;;;;7.17;2.73;;;;;;;8.54;96.02;97257.06;5037766;28;20063;-89
2022/03/14 10:15:26;;;;;;;6.13;2.13;;;;;;;8.92;96.02;97258.41;5022055;28;20029;-89
2022/03/14 10:17:54;;;;;;;3.80;1.00;;;;;;;8.98;94.77;97252.66;5059086;28;20029;-89
2022/03/14 10:20:25;;;;;;;3.43;1.00;;;;;;;9.21;92.59;97261.28;5015035;28;20043;-88
2022/03/14 10:22:52;;;;;;;2.50;0.80;;;;;;;9.46;88.74;97254.88;5038653;28;20033;-88
2022/03/14 10:25:19;;;;;;;5.20;1.20;;;;;;;10.23;87.42;97253.63;5032172;28;20017;-89
2022/03/14 10:27:57;;;;;;;4.03;1.23;;;;;;;12.00;77.17;97248.31;5053897;28;20036;-89
2022/03/14 10:30:29;;;;;;;5.80;1.10;;;;;;;11.66;73.16;97244.44;5030169;28;20036;-88
2022/03/14 10:33:13;;;;;;;4.70;1.20;;;;;;;10.80;75.81;97257.47;5033958;28;20044;-89
2022/03/14 10:35:43;;;;;;;4.20;1.53;;;;;;;10.47;77.79;97254.19;5037959;28;20040;-89
2022/03/14 10:38:12;;;;;;;2.20;1.07;;;;;;;10.22;75.96;97252.78;5037490;28;20028;-89
2022/03/14 10:40:48;;;;;;;3.23;1.10;;;;;;;10.34;73.95;97251.78;5036261;28;20486;-88
2022/03/14 10:43:30;;;;;;;4.63;1.27;;;;;;;11.56;67.29;97241.81;5043159;28;20040;-88
2022/03/14 10:45:58;;;;;;;2.75;0.90;;;;;;;12.14;73.74;97240.88;5037212;28;20040;-89
2022/03/14 10:48:36;;;;;;;4.50;1.00;;;;;;;10.77;76.62;97245.41;5053320;28;20505;-89
2022/03/14 10:51:07;;;;;;;2.63;0.90;;;;;;;10.12;79.12;97244.88;5034819;28;20789;-88
2022/03/14 10:53:34;;;;;;;3.40;0.97;;;;;;;9.86;79.40;97251.53;5037678;28;20025;-89
2022/03/14 10:56:02;;;;;;;4.03;0.93;;;;;;;9.96;78.85;97252.41;5035625;28;20143;-88
2022/03/14 10:58:33;;;;;;;6.67;2.60;;;;;;;11.67;71.31;97251.38;5039655;28;20012;-88
2022/03/14 11:01:02;;;;;;;3.73;0.80;;;;;;;12.25;65.74;97240.72;5043554;28;20032;-89
2022/03/14 11:03:36;;;;;;;1.47;0.77;;;;;;;12.29;60.84;97254.44;5052693;28;20474;-89
2022/03/14 11:06:08;;;;;;;3.83;0.90;;;;;;;12.63;57.28;97249.41;5027970;28;20131;-88
2022/03/14 11:08:51;;;;;;;3.20;1.07;;;;;;;13.55;54.73;97248.41;5048894;28;20502;-88
2022/03/14 11:11:23;;;;;;;3.57;1.17;;;;;;;13.27;53.39;97237.91;5036023;28;20483;-89
2022/03/14 11:13:53;;;;;;;2.30;0.77;;;;;;;13.46;52.62;97233.44;5051663;28;20478;-88
2022/03/14 11:16:27;;;;;;;4.10;1.33;;;;;;;13.58;51.76;97232.22;5032681;28;20486;-89
2022/03/14 11:18:55;;;;;;;5.27;0.83;;;;;;;13.84;49.90;97230.41;5053458;28;20086;-88
2022/03/14 11:21:24;;;;;;;1.70;0.60;;;;;;;14.37;50.18;97228.56;5037714;28;20021;-89
2022/03/14 11:23:52;;;;;;;3.37;0.83;;;;;;;14.75;48.73;97231.72;5045751;28;20119;-89
2022/03/14 11:26:28;;;;;;;5.73;1.00;;;;;;;14.63;46.43;97222.44;5031925;28;20020;-89
2022/03/14 11:28:57;;;;;;;1.93;0.80;;;;;;;14.80;44.11;97217.00;5037287;28;20086;-88
2022/03/14 11:31:23;;;;;;;4.00;0.90;;;;;;;14.17;46.25;97222.69;5039098;28;20761;-88
2022/03/14 11:33:49;;;;;;;3.33;1.00;;;;;;;14.62;46.93;97226.91;5049906;28;20032;-88
2022/03/14 11:36:20;;;;;;;4.27;1.50;;;;;;;14.96;46.33;97220.72;5031007;28;20033;-89
2022/03/14 11:38:46;;;;;;;4.30;1.20;;;;;;;15.33;45.16;97212.31;5056316;28;20050;-89
2022/03/14 11:41:13;;;;;;;4.97;1.47;;;;;;;14.41;46.22;97214.03;5034436;28;20050;-88
2022/03/14 11:43:40;;;;;;;4.63;1.30;;;;;;;15.26;44.38;97214.78;5038798;28;20052;-89
2022/03/14 11:46:06;;;;;;;4.03;0.97;;;;;;;14.75;44.86;97216.66;5054260;28;20097;-89
2022/03/14 11:48:34;;;;;;;3.90;1.00;;;;;;;15.04;44.30;97215.41;5036057;28;20032;-89
2022/03/14 11:51:03;;;;;;;4.17;1.00;;;;;;;14.27;45.47;97222.56;5034827;28;20031;-88
2022/03/14 11:53:48;;;;;;;3.87;0.87;;;;;;;14.69;44.45;97214.69;5038610;28;20056;-89
2022/03/14 11:56:13;;;;;;;3.43;0.97;;;;;;;14.84;44.14;97207.75;5038856;28;20125;-88
2022/03/14 11:58:53;;;;;;;6.50;1.20;;;;;;;13.89;47.29;97214.94;5036504;28;20057;-88
2022/03/14 12:01:22;;;;;;;5.13;1.30;;;;;;;14.23;46.47;97208.84;5047387;28;20039;-89
2022/03/14 12:03:53;;;;;;;6.30;0.97;;;;;;;14.16;45.39;97207.81;5030619;28;20478;-89
2022/03/14 12:06:55;;;;;;;2.97;1.07;;;;;;;13.60;45.79;97206.47;5045240;28;20029;-89
2022/03/14 12:09:24;;;;;;;2.40;0.80;;;;;;;14.50;45.37;97199.03;5046672;28;20040;-89
2022/03/14 12:11:55;;;;;;;7.00;1.23;;;;;;;15.21;43.38;97187.94;5051676;28;20029;-88
2022/03/14 12:15:03;;;;;;;6.27;1.77;;;;;;;15.38;43.91;97185.28;5034150;28;20454;-89
2022/03/14 12:17:31;;;;;;;3.10;1.00;;;;;;;15.44;42.32;97172.22;5041844;28;20040;-88
2022/03/14 12:20:15;;;;;;;5.00;0.93;;;;;;;15.59;42.78;97180.31;5046529;28;20594;-89
2022/03/14 12:22:43;;;;;;;2.77;1.07;;;;;;;15.62;41.47;97185.28;5050152;28;20071;-89
2022/03/14 12:25:12;;;;;;;4.77;1.20;;;;;;;15.31;41.13;97180.66;5046534;28;20036;-89
2022/03/14 12:27:42;;;;;;;5.00;1.13;;;;;;;16.18;40.02;97172.91;5051662;28;20039;-89
2022/03/14 12:30:15;;;;;;;4.63;1.17;;;;;;;15.81;40.98;97188.59;5038448;28;20395;-89
2022/03/14 12:32:53;;;;;;;2.77;1.00;;;;;;;15.52;42.39;97187.28;5032986;28;20483;-89
2022/03/14 12:35:34;;;;;;;5.33;2.07;;;;;;;15.06;41.51;97197.53;5057025;28;20104;-89
2022/03/14 12:38:15;;;;;;;2.97;1.10;;;;;;;14.95;42.69;97181.94;5069486;28;20067;-88
2022/03/14 12:40:43;;;;;;;3.23;0.80;;;;;;;16.26;40.49;97182.66;5047037;28;20036;-89
2022/03/14 12:43:24;;;;;;;3.37;1.10;;;;;;;15.91;39.37;97178.63;5041361;28;20029;-89
2022/03/14 12:46:01;;;;;;;4.43;1.10;;;;;;;16.21;40.12;97180.53;5053981;28;20111;-89
2022/03/14 12:48:29;;;;;;;5.77;1.10;;;;;;;16.24;39.79;97174.06;5050940;28;20059;-89
2022/03/14 12:51:08;;;;;;;3.57;1.00;;;;;;;15.94;37.78;97173.81;5050854;28;20091;-88
2022/03/14 12:53:34;;;;;;;3.90;1.13;;;;;;;16.71;39.17;97181.97;5037890;28;20123;-89
2022/03/14 12:56:01;;;;;;;3.80;1.40;;;;;;;16.40;38.52;97168.69;5030339;28;20120;-88
2022/03/14 12:58:31;;;;;;;4.60;1.50;;;;;;;17.23;37.95;97166.38;5054380;28;20159;-89
2022/03/14 13:01:01;;;;;;;4.60;1.20;;;;;;;16.88;37.67;97179.25;5050788;28;20041;-89
2022/03/14 13:03:33;;;;;;;4.97;1.23;;;;;;;15.33;40.63;97181.31;5038598;28;20041;-88
2022/03/14 13:06:03;;;;;;;3.70;1.10;;;;;;;15.65;39.87;97179.63;5034997;28;20032;-89
2022/03/14 13:08:29;;;;;;;2.43;0.90;;;;;;;15.42;40.29;97183.97;5038988;28;20029;-88
2022/03/14 13:10:57;;;;;;;2.30;1.07;;;;;;;15.44;40.26;97184.63;5038298;28;20033;-89
2022/03/14 13:13:29;;;;;;;5.43;1.23;;;;;;;15.90;40.69;97187.59;5048252;28;20025;-89
2022/03/14 13:16:16;;;;;;;5.82;1.42;;;;;;;15.44;40.73;97192.59;5033913;28;20048;-89
2022/03/14 13:18:48;;;;;;;8.50;4.27;;;;;;;14.16;41.73;97199.88;5051406;28;20079;-88
2022/03/14 13:21:17;;;;;;;3.43;1.10;;;;;;;15.60;40.76;97192.59;5031369;28;20032;-88
2022/03/14 13:23:44;;;;;;;6.83;1.73;;;;;;;15.68;41.43;97194.41;5049880;28;20467;-88
2022/03/14 13:26:11;;;;;;;3.33;1.40;;;;;;;16.69;37.73;97191.09;5031937;28;20064;-88
2022/03/14 13:28:39;;;;;;;4.63;1.07;;;;;;;16.30;39.10;97193.75;5036121;28;20033;-88
2022/03/14 13:31:09;;;;;;;5.70;1.40;;;;;;;16.69;37.71;97199.06;5034899;28;20053;-89
2022/03/14 13:33:39;;;;;;;4.27;0.97;;;;;;;16.61;38.01;97204.44;5062966;28;20033;-88
2022/03/14 13:36:14;;;;;;;3.70;1.10;;;;;;;16.44;38.16;97206.34;5031113;28;20086;-88
2022/03/14 13:38:48;;;;;;;4.07;1.90;;;;;;;16.06;38.06;97202.63;5049543;28;20185;-89
2022/03/14 13:41:18;;;;;;;2.20;1.00;;;;;;;16.49;37.83;97193.34;5042400;28;20028;-88
2022/03/14 13:43:46;;;;;;;4.85;1.40;;;;;;;17.00;37.67;97188.50;5030353;28;20033;-88
2022/03/14 13:46:34;;;;;;;3.78;1.08;;;;;;;16.16;37.89;97192.66;5041190;28;20029;-89
2022/03/14 13:49:18;;;;;;;4.40;1.58;;;;;;;15.65;38.83;97195.53;5031175;28;20036;-88
2022/03/14 13:52:00;;;;;;;3.53;1.08;;;;;;;15.75;39.13;97187.44;5027581;28;20038;-88
2022/03/14 13:54:32;;;;;;;5.05;1.30;;;;;;;15.78;38.71;97187.94;5034260;28;20054;-88
2022/03/14 13:57:06;;;;;;;3.88;1.00;;;;;;;15.28;40.14;97178.34;5032841;28;20028;-87
2022/03/14 13:59:44;;;;;;;4.20;1.10;;;;;;;14.32;40.54;97184.06;5050472;28;20401;-88
2022/03/14 14:02:14;;;;;;;4.17;1.03;;;;;;;14.49;41.08;97179.66;5032330;28;20020;-88
2022/03/14 14:04:41;;;;;;;4.97;1.43;;;;;;;14.76;41.64;97189.22;5033018;28;20033;-88
2022/03/14 14:07:27;;;;;;;5.60;1.20;;;;;;;14.64;41.25;97187.84;5036954;28;20034;-88
2022/03/14 14:09:55;;;;;;;4.27;1.30;;;;;;;14.96;40.61;97197.69;5044205;28;20071;-88
2022/03/14 14:12:27;;;;;;;3.40;1.10;;;;;;;15.42;40.76;97199.88;5030832;28;20032;-88
2022/03/14 14:14:56;;;;;;;6.27;1.60;;;;;;;14.88;40.76;97189.72;5050163;28;20144;-88
2022/03/14 14:17:26;;;;;;;5.17;2.07;;;;;;;14.49;41.10;97206.13;5049472;28;20120;-88
2022/03/14 14:20:10;;;;;;;4.57;1.67;;;;;;;15.47;41.63;97197.56;5046136;28;20033;-88
2022/03/14 14:22:37;;;;;;;5.17;1.47;;;;;;;15.43;39.89;97198.91;5046613;28;20032;-88
2022/03/14 14:25:28;;;;;;;6.63;1.20;;;;;;;15.29;40.35;97198.56;5032655;28;20033;-89
2022/03/14 14:28:00;;;;;;;5.17;1.47;;;;;;;14.33;40.90;97209.53;5033682;28;20040;-88
2022/03/14 14:30:45;;;;;;;5.73;1.57;;;;;;;14.22;41.68;97207.19;5031233;28;20468;-88
2022/03/14 14:33:17;;;;;;;6.37;1.70;;;;;;;13.85;43.36;97218.88;5031770;28;20036;-88
2022/03/14 14:35:48;;;;;;;5.60;1.43;;;;;;;14.13;41.81;97213.41;5034009;28;20036;-88
2022/03/14 14:38:19;;;;;;;4.43;1.40;;;;;;;14.35;42.03;97210.22;5046315;28;20080;-89
2022/03/14 14:40:50;;;;;;;8.57;1.53;;;;;;;13.95;42.24;97210.00;5052921;28;20124;-88
2022/03/14 14:43:17;;;;;;;6.83;1.50;;;;;;;13.29;43.15;97214.81;5036549;28;20036;-88
2022/03/14 14:45:45;;;;;;;6.83;1.60;;;;;;;13.29;42.94;97221.91;5030320;28;20041;-88
2022/03/14 14:48:12;;;;;;;7.83;2.37;;;;;;;13.62;43.16;97215.09;5038696;28;20119;-88
2022/03/14 14:50:39;;;;;;;6.73;2.40;;;;;;;13.81;42.94;97220.16;5048707;28;20040;-88
2022/03/14 14:53:13;;;;;;;9.17;3.63;;;;;;;13.74;42.30;97219.13;5043168;28;20044;-89
2022/03/14 14:55:41;;;;;;;8.03;2.93;;;;;;;13.80;42.89;97220.31;5036283;28;20036;-88
2022/03/14 14:58:07;;;;;;;7.17;1.77;;;;;;;13.85;41.49;97216.25;5067580;28;20174;-88
2022/03/14 15:00:34;;;;;;;4.97;2.00;;;;;;;13.80;42.90;97207.09;5030384;28;20029;-89
2022/03/14 15:03:01;;;;;;;8.17;2.73;;;;;;;13.78;43.06;97217.00;5047787;28;20123;-89
2022/03/14 15:05:27;;;;;;;6.70;2.30;;;;;;;13.92;43.40;97213.78;5047065;28;20386;-88
2022/03/14 15:07:53;;;;;;;13.37;2.37;;;;;;;13.54;43.51;97217.66;5047136;28;20203;-87
2022/03/14 15:10:18;;;;;;;6.77;2.40;;;;;;;13.83;43.41;97215.53;5031299;28;20750;-89
2022/03/14 15:12:44;;;;;;;4.83;1.97;;;;;;;13.55;44.34;97222.78;5034835;28;20044;-88
2022/03/14 15:15:12;;;;;;;6.10;2.03;;;;;;;13.35;43.40;97224.78;5038859;28;20521;-87
2022/03/14 15:17:38;;;;;;;7.97;2.00;;;;;;;13.44;44.16;97228.31;5049229;28;20107;-87
2022/03/14 15:20:10;;;;;;;3.67;1.40;;;;;;;13.23;43.86;97231.22;5051838;28;20033;-88
2022/03/14 15:22:36;;;;;;;5.97;1.80;;;;;;;13.10;44.31;97231.59;5050915;28;20139;-88
2022/03/14 15:25:03;;;;;;;6.83;2.53;;;;;;;13.24;44.28;97234.69;5037448;28;20032;-88
2022/03/14 15:27:30;;;;;;;6.07;1.83;;;;;;;13.26;44.14;97232.78;5051239;28;20036;-87
2022/03/14 15:33:44;;;;;;;5.57;1.90;;;;;;;13.18;44.82;97242.25;5067232;28;20123;-87
2022/03/14 15:36:09;;;;;;;3.73;1.13;;;;;;;12.91;45.47;97231.72;5050838;28;20068;-88
2022/03/14 15:38:39;;;;;;;5.83;1.57;;;;;;;13.05;45.47;97240.97;5034008;28;20024;-87
2022/03/14 15:41:10;;;;;;;4.13;1.30;;;;;;;12.90;45.69;97235.38;5035291;28;20108;-85
2022/03/14 15:43:37;;;;;;;2.43;0.90;;;;;;;12.54;46.09;97251.16;5053841;28;20036;-87
2022/03/14 15:46:06;;;;;;;8.37;1.53;;;;;;;12.74;46.01;97247.44;5047401;28;20036;-87
2022/03/14 15:48:33;;;;;;;5.50;1.47;;;;;;;12.87;46.02;97238.31;5054674;28;20064;-86
2022/03/14 15:51:00;;;;;;;6.90;2.13;;;;;;;13.06;45.76;97235.53;5037944;28;20041;-87
2022/03/14 15:53:26;;;;;;;21.93;12.17;;;;;;;12.31;46.75;97248.06;5026452;28;20042;-88
2022/03/14 15:55:52;;;;;;;5.67;1.87;;;;;;;12.40;47.07;97254.25;5050847;28;20079;-87
2022/03/14 15:58:45;;;;;;;5.53;1.47;;;;;;;12.19;47.51;97257.94;5034660;28;20857;-88
2022/03/14 16:01:12;;;;;;;4.95;1.27;;;;;;;12.30;48.89;97256.09;5037967;28;20053;-87
2022/03/14 16:03:38;;;;;;;4.80;1.37;;;;;;;12.11;47.61;97255.19;5052418;28;20033;-88
2022/03/14 16:06:04;;;;;;;3.87;1.37;;;;;;;11.94;50.46;97254.16;5050718;28;20040;-88
2022/03/14 16:08:29;;;;;;;5.40;2.10;;;;;;;11.70;51.62;97254.56;5049637;28;20029;-87
2022/03/14 16:10:55;;;;;;;4.37;1.60;;;;;;;11.61;52.71;97258.06;5053812;28;20036;-87
2022/03/14 16:13:23;;;;;;;4.00;1.20;;;;;;;11.84;52.42;97265.63;5054336;28;20128;-87
2022/03/14 16:15:49;;;;;;;4.63;1.00;;;;;;;11.56;53.42;97270.78;5052727;28;20020;-87
2022/03/14 16:18:17;;;;;;;6.03;1.70;;;;;;;11.64;53.28;97267.47;5030640;28;20106;-87
2022/03/14 16:20:43;;;;;;;7.67;1.10;;;;;;;11.38;53.78;97272.47;5031156;28;20167;-88
2022/03/14 16:23:09;;;;;;;3.70;1.10;;;;;;;11.45;54.31;97269.16;5027109;28;20024;-88
2022/03/14 16:25:35;;;;;;;3.23;0.90;;;;;;;11.19;55.60;97276.75;5032810;28;20028;-88
2022/03/14 16:28:03;;;;;;;2.90;0.80;;;;;;;10.93;56.48;97279.09;5031396;28;20033;-88
2022/03/14 16:30:30;;;;;;;3.53;1.03;;;;;;;10.97;56.82;97280.47;5033721;28;20024;-88
2022/03/14 16:33:00;;;;;;;3.53;0.90;;;;;;;10.84;57.42;97286.00;5046249;28;20047;-87
2022/03/14 16:35:26;;;;;;;5.67;1.20;;;;;;;10.67;57.56;97288.44;5046489;28;20036;-88
2022/03/14 16:38:02;;;;;;;4.17;1.10;;;;;;;10.65;57.68;97290.38;5034794;28;20043;-88
2022/03/14 16:41:09;;;;;;;4.57;1.33;;;;;;;10.71;57.61;97295.09;5049108;28;20029;-87
2022/03/14 16:43:51;;;;;;;4.73;0.90;;;;;;;10.68;57.92;97284.84;5032377;28;20028;-88
2022/03/14 16:46:19;;;;;;;5.37;1.37;;;;;;;10.48;59.23;97292.66;5041924;28;20053;-88
2022/03/14 16:48:46;;;;;;;2.77;1.30;;;;;;;10.33;59.83;97299.25;5049382;28;20045;-88
2022/03/14 16:51:18;;;;;;;6.93;1.23;;;;;;;10.35;59.95;97290.25;5038094;28;20032;-87
2022/03/14 16:53:46;;;;;;;3.17;1.10;;;;;;;10.34;60.01;97301.75;5037630;28;20037;-88
2022/03/14 16:56:12;;;;;;;2.87;0.80;;;;;;;10.35;60.67;97310.47;5025121;28;20087;-87
2022/03/14 16:58:46;;;;;;;7.70;1.17;;;;;;;10.22;61.01;97304.53;5035725;28;20036;-88
2022/03/14 17:01:15;;;;;;;11.60;4.87;;;;;;;10.09;61.26;97308.22;5045328;28;20029;-88
2022/03/14 17:03:42;;;;;;;15.43;10.60;;;;;;;10.40;66.36;97308.28;5036992;28;20040;-87
2022/03/14 17:06:11;;;;;;;8.07;3.53;;;;;;;10.23;62.99;97309.69;5053699;28;20048;-88
2022/03/14 17:08:37;;;;;;;5.70;1.40;;;;;;;10.04;62.93;97314.84;5030475;28;20107;-88
2022/03/14 17:11:03;;;;;;;6.73;1.60;;;;;;;9.91;62.81;97313.22;5028456;28;20036;-87
2022/03/14 17:13:29;;;;;;;8.73;3.00;;;;;;;9.80;63.55;97305.41;5028386;28;20487;-88
2022/03/14 17:15:55;;;;;;;9.13;2.17;;;;;;;9.67;64.28;97310.84;5025255;28;20127;-87
2022/03/14 17:18:23;;;;;;;7.43;1.40;;;;;;;9.61;65.30;97319.22;5041239;28;20055;-88
2022/03/14 17:20:50;;;;;;;6.40;1.30;;;;;;;9.60;65.26;97324.63;5039393;28;20697;-88
2022/03/14 17:23:20;;;;;;;3.70;1.37;;;;;;;9.52;65.47;97325.25;5059985;28;20036;-88
2022/03/14 17:25:49;;;;;;;4.80;1.60;;;;;;;9.38;66.27;97326.38;5039942;28;20029;-87
2022/03/14 17:28:22;;;;;;;4.53;1.23;;;;;;;9.39;66.61;97321.97;5052544;28;20101;-87
2022/03/14 17:30:48;;;;;;;5.17;1.43;;;;;;;9.39;66.80;97322.81;5035421;28;20041;-88
2022/03/14 17:33:17;;;;;;;4.47;1.40;;;;;;;9.27;67.56;97322.97;5033081;28;20959;-88
2022/03/14 17:36:26;;;;;;;7.90;1.57;;;;;;;9.15;68.38;97333.50;5042275;28;20090;-87
2022/03/14 17:38:52;;;;;;;6.57;3.07;;;;;;;9.08;69.47;97324.44;5039153;28;20025;-89
2022/03/14 17:41:18;;;;;;;15.07;6.77;;;;;;;9.03;69.58;97329.22;5045162;28;20013;-88
2022/03/14 17:43:47;;;;;;;12.57;7.33;;;;;;;8.87;70.87;97334.84;5052740;28;20060;-88
2022/03/14 17:46:14;;;;;;;10.93;5.73;;;;;;;8.67;71.74;97348.72;5049159;28;20099;-87
2022/03/14 17:48:46;;;;;;;6.67;2.50;;;;;;;8.55;72.62;97345.25;5037080;28;20040;-86
2022/03/14 18:03:32;;;;;;;3.93;1.53;;;;;;;8.44;74.57;97356.56;5012803;28;20215;-86
2022/03/14 18:06:38;;;;;;;12.00;1.80;;;;;;;8.38;74.93;97350.97;4995094;28;20041;-86
2022/03/14 18:09:13;;;;;;;15.90;8.07;;;;;;;8.22;75.35;97346.88;5014098;28;20120;-87
2022/03/14 18:12:16;;;;;;;28.67;13.90;;;;;;;8.24;75.98;97355.44;4999314;28;20076;-86
2022/03/14 18:15:13;;;;;;;8.43;3.50;;;;;;;8.10;76.64;97358.28;5016198;28;20571;-87
2022/03/14 18:18:21;;;;;;;8.40;2.40;;;;;;;8.09;76.30;97356.63;4941594;29;20212;-87